PWSweather.com
Personal Weather Stations
Station Observations
KILMORRI1
Goose Lake, Morris, IL 60450

Goose LakeMorris, IL 60450

Lat: 41.34, Lon: -88.3

Elevation: 523

Station Type:

Latest ConditionsUpdated 3:20:03 AM CST Thursday, Dec 12, 2019
Currently Today's Max Today's Min Today's Average
Temperature 20.5°F-6.4°C 20.5°F-6.4°C 14.8°F-9.6°C 17.8°F-7.9°C
Dew Point 17.7°F-7.9°C 17.7°F-7.9°C 12.4°F-10.9°C 15.3°F-9.3°C
Winds 3.5 mph ESE5.6 kmh ESE 3.5 mph -5.6 kmh - - 2.2 mph 3.5 kmh
Wind Gusts 4.6 mph7.4 kmh 8.1 mph13.0 kmh - -
Humidity 89% 92% 88% 90%
Pressure 30.44 in1030.8 mb 30.50 in1032.8 mb 30.44 in1030.8 mb -
Hour Temp Dew Point Humidity Winds Wind Gusts Pressure Precip Precip Rate Daily Precip Total
03:20 AM 20.5°F-6.4°C 17.7°F-7.9°C 89% 3.5 mph ESE5.6 kmh ESE 4.6 mph7.4 kmh 30.44 in1030.8 mb - 0.00 in0.0 mm 0.00 in0.0 mm
03:10 AM 20.3°F-6.5°C 17.3°F-8.2°C 88% 2.3 mph E3.7 kmh E 3.5 mph5.6 kmh 30.45 in1031.2 mb - 0.00 in0.0 mm 0.00 in0.0 mm
03:00 AM 20.1°F-6.6°C 17.1°F-8.3°C 88% 3.5 mph ESE5.6 kmh ESE 4.6 mph7.4 kmh 30.45 in1031.2 mb - 0.00 in0.0 mm 0.00 in0.0 mm
02:50 AM 20.1°F-6.6°C 17.1°F-8.3°C 88% 2.3 mph E3.7 kmh E 4.6 mph7.4 kmh 30.46 in1031.5 mb - 0.00 in0.0 mm 0.00 in0.0 mm
02:40 AM 19.8°F-6.8°C 17.1°F-8.3°C 89% 2.3 mph E3.7 kmh E 4.6 mph7.4 kmh 30.46 in1031.5 mb - 0.00 in0.0 mm 0.00 in0.0 mm
02:30 AM 19.6°F-6.9°C 16.9°F-8.4°C 89% 3.5 mph ESE5.6 kmh ESE 6.9 mph11.1 kmh 30.46 in1031.5 mb - 0.00 in0.0 mm 0.00 in0.0 mm
02:20 AM 19.4°F-7.0°C 16.7°F-8.5°C 89% 2.3 mph E3.7 kmh E 3.5 mph5.6 kmh 30.47 in1031.8 mb - 0.00 in0.0 mm 0.00 in0.0 mm
02:10 AM 19.3°F-7.1°C 16.6°F-8.6°C 89% 2.3 mph E3.7 kmh E 3.5 mph5.6 kmh 30.47 in1031.8 mb - 0.00 in0.0 mm 0.00 in0.0 mm
02:00 AM 19.1°F-7.2°C 16.6°F-8.6°C 90% 2.3 mph E3.7 kmh E 6.9 mph11.1 kmh 30.47 in1031.8 mb - 0.00 in0.0 mm 0.00 in0.0 mm
01:50 AM 18.3°F-7.6°C 16.1°F-8.8°C 91% 3.5 mph ESE5.6 kmh ESE 8.1 mph13.0 kmh 30.48 in1032.2 mb - 0.00 in0.0 mm 0.00 in0.0 mm
01:40 AM 17.7°F-7.9°C 15.5°F-9.2°C 91% 1.2 mph SE1.9 kmh SE 3.5 mph5.6 kmh 30.48 in1032.2 mb - 0.00 in0.0 mm 0.00 in0.0 mm
01:30 AM 17.4°F-8.1°C 15.3°F-9.3°C 91% 1.2 mph SE1.9 kmh SE 3.5 mph5.6 kmh 30.49 in1032.5 mb - 0.00 in0.0 mm 0.00 in0.0 mm
01:20 AM 17.4°F-8.1°C 15.2°F-9.3°C 91% 2.3 mph SE3.7 kmh SE 3.5 mph5.6 kmh 30.48 in1032.2 mb - 0.00 in0.0 mm 0.00 in0.0 mm
01:10 AM 16.9°F-8.4°C 15.0°F-9.4°C 92% 2.3 mph ESE3.7 kmh ESE 3.5 mph5.6 kmh 30.48 in1032.2 mb - 0.00 in0.0 mm 0.00 in0.0 mm
01:00 AM 16.2°F-8.8°C 14.3°F-9.8°C 92% 2.3 mph E3.7 kmh E 4.6 mph7.4 kmh 30.48 in1032.2 mb - 0.00 in0.0 mm 0.00 in0.0 mm
12:50 AM 15.7°F-9.1°C 13.8°F-10.1°C 92% 2.3 mph ESE3.7 kmh ESE 3.5 mph5.6 kmh 30.49 in1032.5 mb - 0.00 in0.0 mm 0.00 in0.0 mm
12:40 AM 15.4°F-9.2°C 13.2°F-10.4°C 91% 1.2 mph ESE1.9 kmh ESE 3.5 mph5.6 kmh 30.49 in1032.5 mb - 0.00 in0.0 mm 0.00 in0.0 mm
12:30 AM 15.0°F-9.4°C 12.9°F-10.6°C 91% 1.2 mph ESE1.9 kmh ESE 3.5 mph5.6 kmh 30.48 in1032.2 mb - 0.00 in0.0 mm 0.00 in0.0 mm
12:20 AM 14.8°F-9.6°C 12.4°F-10.9°C 90% 1.2 mph ESE1.9 kmh ESE 2.3 mph3.7 kmh 30.49 in1032.5 mb - 0.00 in0.0 mm 0.00 in0.0 mm
12:10 AM 14.9°F-9.5°C 12.5°F-10.8°C 90% 1.2 mph ESE1.9 kmh ESE 2.3 mph3.7 kmh 30.50 in1032.8 mb - 0.00 in0.0 mm 0.00 in0.0 mm
12:00 AM 15.1°F-9.4°C 12.7°F-10.7°C 90% 2.3 mph ESE3.7 kmh ESE 3.5 mph5.6 kmh 30.50 in1032.8 mb - 0.00 in0.0 mm 0.00 in0.0 mm